Data for 09/30/2016

Time Sea-Level Adjusted Pressure Absolute Pressure Temperature Relative Humidity Dew Point   
(mb) (inHg) (mb) (inHg) (C) (F) (%) (C) (F)
00:05 1022 30.18 851 25.13 12.6 54.8 64 6 42.8
00:10 1022 30.18 851 25.13 12.5 54.6 63 5.8 42.5
00:15 1022 30.18 851 25.13 12.5 54.6 63 5.8 42.4
00:20 1022 30.18 851 25.13 12.6 54.6 62 5.6 42.1
00:25 1022 30.18 851 25.13 12.7 54.8 63 5.8 42.4
00:30 1022 30.18 851 25.13 12.4 54.3 64 5.8 42.4
00:35 1022 30.18 851 25.13 12.4 54.4 63 5.6 42.2
00:40 1022 30.18 851 25.13 12.6 54.6 63 5.7 42.2
00:45 1022 30.18 851 25.13 12.6 54.6 64 5.9 42.6
00:50 1022 30.18 851 25.13 12 53.6 66 5.9 42.6
00:55 1022 30.18 851 25.13 11.6 52.9 66 5.5 41.9
01:00 1022 30.18 851 25.13 11.8 53.2 65 5.5 41.9
01:05 1022 30.18 851 25.13 11.8 53.3 66 5.8 42.4
01:10 1022 30.18 851 25.13 11.4 52.5 67 5.5 41.9
01:15 1022 30.18 851 25.13 11.5 52.7 67 5.5 42
01:20 1022 30.18 851 25.13 11.5 52.8 64 5 41.1
01:25 1022 30.18 851 25.13 12 53.7 62 5 41
01:30 1021 30.15 851 25.13 12.3 54.1 63 5.4 41.8
01:35 1021 30.15 851 25.13 11.9 53.3 63 5.2 41.3
01:40 1021 30.15 851 25.13 11.8 53.2 64 5.2 41.3
01:45 1021 30.15 851 25.13 11.7 53.1 64 5.1 41.3
01:50 1021 30.15 850 25.1 11.9 53.4 60 4.5 40.2
01:55 1021 30.15 850 25.1 12.7 54.9 60 5.1 41.3
02:00 1021 30.15 850 25.1 12.4 54.3 62 5.3 41.6
02:05 1021 30.15 850 25.1 12 53.6 63 5.2 41.4
02:10 1021 30.15 850 25.1 11.9 53.4 63 5.2 41.3
02:15 1021 30.15 850 25.1 11.9 53.4 64 5.3 41.5
02:20 1021 30.15 850 25.1 11.9 53.4 63 5.1 41.3
02:25 1021 30.15 850 25.1 12.1 53.7 62 5 41
02:30 1021 30.15 850 25.1 12.5 54.5 60 5 40.9
02:35 1021 30.15 850 25.1 12.7 54.9 60 5.2 41.4
02:40 1021 30.15 850 25.1 12.8 55.1 59 5 41
02:45 1021 30.15 850 25.1 13 55.3 59 5.3 41.5
02:50 1021 30.15 850 25.1 12.8 55 60 5.2 41.4
02:55 1021 30.15 850 25.1 12.6 54.6 61 5.3 41.5
03:00 1021 30.15 850 25.1 12.5 54.5 60 5 41.1
03:05 1021 30.15 850 25.1 12.8 55 60 5.2 41.3
03:10 1021 30.15 850 25.1 12.7 54.9 61 5.3 41.6
03:15 1021 30.15 850 25.1 12.5 54.5 61 5.3 41.6
03:20 1021 30.15 850 25.1 12.5 54.5 61 5.2 41.3
03:25 1021 30.15 850 25.1 12.4 54.3 61 5.2 41.3
03:30 1021 30.15 850 25.1 12.3 54.1 62 5.3 41.6
03:35 1021 30.15 851 25.13 12.3 54.1 62 5.3 41.6
03:40 1021 30.15 851 25.13 11.6 52.9 64 5.1 41.1
03:45 1021 30.15 851 25.13 11.1 52 66 5 41.1
03:50 1021 30.15 851 25.13 11 51.8 64 4.5 40.1
03:55 1021 30.15 851 25.13 11.6 52.9 62 4.6 40.3
04:00 1021 30.15 851 25.13 11.7 53 63 4.8 40.7
04:05 1021 30.15 851 25.13 11.4 52.5 64 4.8 40.6
04:10 1022 30.18 851 25.13 11.2 52.1 64 4.6 40.2
04:15 1021 30.15 851 25.13 11.2 52.2 64 4.6 40.4
04:20 1022 30.18 851 25.13 11.1 52 65 4.8 40.6
04:25 1022 30.18 851 25.13 10.6 51.2 67 4.7 40.5
04:30 1022 30.18 851 25.13 10.6 51.1 65 4.4 39.9
04:35 1022 30.18 851 25.13 10.7 51.2 65 4.5 40.1
04:40 1022 30.18 851 25.13 10.5 51 66 4.5 40.1
04:45 1022 30.18 851 25.13 10.9 51.7 64 4.4 39.9
04:50 1022 30.18 851 25.13 10.9 51.7 65 4.5 40.2
04:55 1022 30.18 851 25.13 10.9 51.5 64 4.4 39.9
05:00 1022 30.18 851 25.13 10.9 51.6 64 4.4 39.8
05:05 1022 30.18 851 25.13 10.9 51.6 64 4.3 39.7
05:10 1022 30.18 851 25.13 10.9 51.6 64 4.3 39.8
05:15 1022 30.18 851 25.13 10.8 51.4 63 4.2 39.5
05:20 1022 30.18 851 25.13 10.9 51.6 63 4.2 39.6
05:25 1022 30.18 851 25.13 11.1 52 62 4.2 39.5
05:30 1022 30.18 851 25.13 11.2 52.2 63 4.4 39.9
05:35 1022 30.18 851 25.13 11.2 52.1 62 4.2 39.6
05:40 1022 30.18 851 25.13 11 51.9 64 4.4 40
05:45 1022 30.18 851 25.13 10.8 51.4 65 4.5 40.1
05:50 1022 30.18 851 25.13 10.6 51.1 65 4.3 39.7
05:55 1022 30.18 851 25.13 10.5 50.9 65 4.3 39.7
06:00 1022 30.18 851 25.13 10.3 50.6 66 4.3 39.7
06:05 1022 30.18 851 25.13 10 50.1 67 4.3 39.7
06:10 1022 30.18 851 25.13 9.9 49.8 67 4.1 39.4
06:15 1022 30.18 851 25.13 9.9 49.8 67 4.1 39.4
06:20 1022 30.18 851 25.13 10.1 50.2 66 4 39.2
06:25 1022 30.18 851 25.13 10.5 50.8 64 4 39.3
06:30 1022 30.18 851 25.13 10.7 51.3 63 4 39.2
06:35 1022 30.18 851 25.13 10.8 51.5 63 4.1 39.3
06:40 1022 30.18 851 25.13 10.8 51.5 63 4.1 39.3
06:45 1022 30.18 851 25.13 10.8 51.4 62 3.9 39.1
06:50 1022 30.18 851 25.13 11.1 52 60 3.7 38.6
06:55 1022 30.18 851 25.13 11.6 52.8 58 3.7 38.6
07:00 1022 30.18 851 25.13 12 53.5 57 3.7 38.6
07:05 1022 30.18 851 25.13 12.3 54.2 56 3.8 38.8
07:10 1022 30.18 851 25.13 12.4 54.4 56 4 39.1
07:15 1022 30.18 851 25.13 12.4 54.3 57 4.1 39.4
07:20 1022 30.18 851 25.13 12.3 54.2 57 4.1 39.3
07:25 1022 30.18 851 25.13 12.4 54.3 57 4.3 39.7
07:30 1022 30.18 851 25.13 12.5 54.5 58 4.4 40
07:35 1022 30.18 851 25.13 12.6 54.7 57 4.3 39.8
07:40 1022 30.18 851 25.13 13 55.3 57 4.6 40.3
07:45 1022 30.18 851 25.13 12.8 55.1 57 4.5 40.1
07:50 1022 30.18 851 25.13 13.2 55.7 54 4.1 39.3
07:55 1022 30.18 851 25.13 13.4 56.1 53 4 39.3
08:00 1022 30.18 852 25.16 13.7 56.7 52 4.2 39.5
08:05 1022 30.18 852 25.16 14.4 57.9 51 4.4 39.9
08:10 1023 30.21 852 25.16 15 59.1 48 4.3 39.8
08:15 1023 30.21 852 25.16 15.5 60 47 4.5 40.1
08:20 1023 30.21 852 25.16 16.2 61.1 46 4.6 40.3
08:25 1023 30.21 852 25.16 15.7 60.3 47 4.6 40.3
08:30 1023 30.21 852 25.16 15.7 60.3 49 5 41
08:35 1023 30.21 852 25.16 15.8 60.5 47 4.6 40.2
08:40 1023 30.21 852 25.16 16.4 61.4 46 4.7 40.5
08:45 1023 30.21 852 25.16 16.1 61.1 45 4.4 39.9
08:50 1023 30.21 852 25.16 16.6 61.9 43 4 39.2
08:55 1023 30.21 852 25.16 17.3 63.1 43 4.5 40.2
09:00 1023 30.21 852 25.16 17.6 63.7 40 4.1 39.3
09:05 1023 30.21 852 25.16 17.9 64.2 40 4.1 39.5
09:10 1023 30.21 852 25.16 17.5 63.5 42 4.6 40.3
09:15 1023 30.21 852 25.16 17.7 63.8 41 4.2 39.6
09:20 1023 30.21 852 25.16 18.2 64.7 41 4.9 40.8
09:25 1023 30.21 852 25.16 18.1 64.6 41 4.8 40.7
09:30 1023 30.21 852 25.16 18.2 64.7 40 4.5 40.1
09:35 1023 30.21 852 25.16 17.8 64 41 4.6 40.3
09:40 1023 30.21 852 25.16 18.2 64.7 40 4.6 40.2
09:45 1023 30.21 852 25.16 18.8 65.9 39 4.7 40.5
09:50 1023 30.21 852 25.16 18.7 65.6 39 4.4 40
09:55 1023 30.21 852 25.16 18.9 66 38 4.6 40.2
10:00 1022 30.18 852 25.16 19.1 66.3 38 4.5 40.2
10:05 1022 30.18 852 25.16 19.2 66.5 38 4.8 40.6
10:10 1022 30.18 852 25.16 19.1 66.4 41 5.9 42.6
10:15 1022 30.18 852 25.16 19.6 67.3 36 4.4 40
10:20 1022 30.18 852 25.16 20.3 68.5 36 4.7 40.4
10:25 1022 30.18 852 25.16 19.9 67.9 38 5.3 41.5
10:30 1022 30.18 852 25.16 19.2 66.5 38 4.7 40.4
10:35 1022 30.18 852 25.16 19.3 66.7 37 4.5 40
10:40 1022 30.18 852 25.16 19.7 67.5 35 3.9 39.1
10:45 1022 30.18 851 25.13 20.4 68.7 35 4.7 40.4
10:50 1022 30.18 851 25.13 20.7 69.3 32 3.7 38.6
10:55 1022 30.18 851 25.13 21.3 70.3 32 3.9 39.1
11:00 1022 30.18 851 25.13 21.4 70.4 32 4 39.2
11:05 1022 30.18 851 25.13 22.1 71.8 30 4.1 39.4
11:10 1022 30.18 851 25.13 22.3 72.1 29 3.8 38.8
11:15 1022 30.18 851 25.13 21.6 70.9 32 4.2 39.6
11:20 1022 30.18 851 25.13 21 69.7 32 4 39.3
11:25 1022 30.18 851 25.13 21.5 70.7 32 4.1 39.5
11:30 1022 30.18 851 25.13 21.7 71 31 3.9 39
11:35 1022 30.18 851 25.13 22.2 72 28 3.3 37.9
11:40 1021 30.15 851 25.13 22.5 72.4 29 3.8 38.8
11:45 1021 30.15 851 25.13 22.3 72.1 29 3.7 38.6
11:50 1021 30.15 851 25.13 22.5 72.6 28 3.3 38
11:55 1021 30.15 851 25.13 23.1 73.6 28 3.7 38.7
12:00 1021 30.15 851 25.13 23.4 74 28 3.8 38.9
12:05 1021 30.15 850 25.1 22.9 73.2 28 3.4 38.2
12:10 1021 30.15 850 25.1 23.3 73.9 27 3.3 38
12:15 1021 30.15 850 25.1 23 73.4 27 3.3 37.9
12:20 1021 30.15 850 25.1 23.1 73.6 26 2.7 36.8
12:25 1021 30.15 850 25.1 24 75.2 25 3 37.4
12:30 1021 30.15 850 25.1 24.8 76.6 24 3.1 37.5
12:35 1021 30.15 850 25.1 25.3 77.6 24 3.4 38.2
12:40 1021 30.15 850 25.1 24.9 76.8 22 2.2 35.9
12:45 1021 30.15 850 25.1 25 77 24 3.6 38.4
12:50 1021 30.15 850 25.1 24.6 76.2 25 3.7 38.7
12:55 1021 30.15 850 25.1 24.2 75.5 24 2.9 37.2
13:00 1021 30.15 850 25.1 23.8 74.9 25 2.9 37.2
13:05 1021 30.15 850 25.1 23.6 74.4 26 3.2 37.8
13:10 1020 30.12 850 25.1 23.8 74.8 24 2.4 36.4
13:15 1020 30.12 850 25.1 23.9 75 24 2.3 36.1
13:20 1020 30.12 849 25.07 24.5 76.1 24 2.7 36.8
13:25 1020 30.12 849 25.07 24.2 75.6 25 2.9 37.3
13:30 1020 30.12 849 25.07 23.9 74.9 25 3.1 37.5
13:35 1020 30.12 849 25.07 24 75.3 25 2.7 36.9
13:40 1020 30.12 849 25.07 24 75.2 25 3 37.4
13:45 1020 30.12 849 25.07 23.7 74.7 25 2.8 37.1
13:50 1020 30.12 849 25.07 24.1 75.3 24 2.7 36.8
13:55 1020 30.12 849 25.07 24.4 75.8 24 2.6 36.6
14:00 1020 30.12 849 25.07 24.4 75.8 24 2.7 36.8
14:05 1020 30.12 849 25.07 25 76.9 22 2.2 35.9
14:10 1020 30.12 849 25.07 24.1 75.5 24 2.3 36.2
14:15 1020 30.12 849 25.07 24 75.1 24 2.2 36
14:20 1020 30.12 849 25.07 24.4 75.9 22 1.8 35.3
14:25 1020 30.12 849 25.07 24.7 76.5 22 1.7 35.1
14:30 1020 30.12 849 25.07 25.1 77.3 22 1.9 35.4
14:35 1020 30.12 849 25.07 25.1 77.2 22 2.1 35.7
14:40 1020 30.12 849 25.07 24.7 76.5 22 1.9 35.5
14:45 1020 30.12 849 25.07 25 76.9 22 2 35.7
14:50 1020 30.12 849 25.07 25.5 77.9 21 2.1 35.8
14:55 1020 30.12 849 25.07 25.5 77.8 21 2.1 35.8
15:00 1020 30.12 849 25.07 25.3 77.5 21 2 35.6
15:05 1020 30.12 849 25.07 25.3 77.5 21 1.9 35.3
15:10 1020 30.12 849 25.07 25 77 22 2.3 36.1
15:15 1020 30.12 849 25.07 25 76.9 23 2.6 36.6
15:20 1020 30.12 849 25.07 24.6 76.2 23 2.1 35.8
15:25 1020 30.12 849 25.07 25 77 23 2.6 36.7
15:30 1020 30.12 849 25.07 25 77 22 2.1 35.9
15:35 1020 30.12 849 25.07 25.5 77.9 23 3.1 37.5
15:40 1020 30.12 849 25.07 25.4 77.7 22 2.6 36.7
15:45 1020 30.12 849 25.07 25.3 77.5 23 2.8 37.1
15:50 1020 30.12 849 25.07 24.5 76.1 24 2.7 36.8
15:55 1020 30.12 849 25.07 24.4 75.9 24 2.8 37
16:00 1020 30.12 849 25.07 23.6 74.5 25 2.7 36.9
16:05 1020 30.12 849 25.07 23.2 73.8 26 2.9 37.2
16:10 1020 30.12 849 25.07 22.9 73.2 26 2.7 36.8
16:15 1020 30.12 849 25.07 22.9 73.2 26 2.4 36.3
16:20 1020 30.12 849 25.07 23.1 73.6 25 2 35.6
16:25 1020 30.12 849 25.07 23.4 74.1 24 2.1 35.9
16:30 1020 30.12 849 25.07 23.6 74.5 24 2 35.7
16:35 1020 30.12 849 25.07 23.6 74.4 24 1.8 35.3
16:40 1020 30.12 849 25.07 23.7 74.6 24 2 35.7
16:45 1020 30.12 849 25.07 23.9 75 27 3.8 38.9
16:50 1020 30.12 849 25.07 22.4 72.4 29 3.6 38.5
16:55 1020 30.12 849 25.07 21.5 70.7 31 3.6 38.6
17:00 1020 30.12 849 25.07 20.8 69.4 31 3.2 37.7
17:05 1020 30.12 849 25.07 20.4 68.7 32 3.2 37.7
17:10 1020 30.12 849 25.07 20.2 68.4 33 3.4 38.1
17:15 1020 30.12 849 25.07 20.2 68.4 32 3 37.4
17:20 1020 30.12 849 25.07 20.3 68.5 32 3.2 37.8
17:25 1020 30.12 849 25.07 20.1 68.2 34 3.8 38.8
17:30 1020 30.12 849 25.07 19.7 67.5 35 3.9 39.1
17:35 1020 30.12 849 25.07 19.6 67.2 35 4 39.3
17:40 1020 30.12 849 25.07 19.4 66.9 35 3.6 38.5
17:45 1020 30.12 849 25.07 19.2 66.6 36 4 39.1
17:50 1020 30.12 849 25.07 19 66.1 36 3.9 39
17:55 1020 30.12 849 25.07 18.9 66 36 3.8 38.8
18:00 1020 30.12 849 25.07 18.7 65.6 37 3.9 39.1
18:05 1020 30.12 849 25.07 18.6 65.5 37 3.8 38.8
18:10 1020 30.12 849 25.07 18.4 65.1 38 4 39.2
18:15 1020 30.12 849 25.07 18.2 64.8 40 4.5 40.2
18:20 1020 30.12 849 25.07 18.3 64.9 37 3.6 38.5
18:25 1020 30.12 849 25.07 18.3 64.9 38 3.8 38.9
18:30 1020 30.12 849 25.07 18.2 64.8 36 3.1 37.5
18:35 1020 30.12 849 25.07 18.4 65.1 37 3.4 38.1
18:40 1020 30.12 849 25.07 18.5 65.2 36 3.2 37.8
18:45 1020 30.12 849 25.07 18.4 65.1 36 3.2 37.8
18:50 1020 30.12 849 25.07 18.3 64.9 39 4.2 39.6
18:55 1020 30.12 849 25.07 18.1 64.5 37 3.3 38
19:00 1020 30.12 849 25.07 18.1 64.5 35 2.6 36.7
19:05 1020 30.12 849 25.07 18.3 64.9 36 3.1 37.5
19:10 1020 30.12 849 25.07 18 64.4 36 2.9 37.3
19:15 1020 30.12 849 25.07 17.7 63.8 39 3.6 38.5
19:20 1020 30.12 849 25.07 17.6 63.6 36 2.4 36.3
19:25 1020 30.12 849 25.07 17.5 63.6 37 2.7 36.8
19:30 1020 30.12 849 25.07 17.4 63.2 37 2.5 36.5
19:35 1020 30.12 849 25.07 17.2 63 37 2.3 36.2
19:40 1020 30.12 849 25.07 17 62.7 39 2.9 37.3
19:45 1020 30.12 849 25.07 16.8 62.2 41 3.6 38.4
19:50 1020 30.12 849 25.07 16.8 62.3 38 2.5 36.4
19:55 1020 30.12 849 25.07 16.8 62.2 38 2.4 36.3
20:00 1020 30.12 849 25.07 16.8 62.2 38 2.5 36.4
20:05 1020 30.12 849 25.07 16.6 61.9 38 2.4 36.4
20:10 1020 30.12 849 25.07 16.5 61.7 39 2.8 37
20:15 1020 30.12 849 25.07 16.3 61.3 39 2.5 36.4
20:20 1020 30.12 849 25.07 16.4 61.5 39 2.4 36.3
20:25 1020 30.12 849 25.07 16.5 61.7 38 2.3 36.1
20:30 1020 30.12 849 25.07 16.4 61.6 39 2.7 36.8
20:35 1020 30.12 849 25.07 16.2 61.2 40 2.6 36.6
20:40 1020 30.12 849 25.07 16.2 61.1 40 2.6 36.6
20:45 1020 30.12 849 25.07 16.3 61.3 40 2.7 36.8
20:50 1020 30.12 849 25.07 16.3 61.4 39 2.6 36.6
20:55 1020 30.12 849 25.07 16.4 61.5 39 2.6 36.6
21:00 1020 30.12 849 25.07 16.4 61.6 39 2.5 36.4
21:05 1020 30.12 849 25.07 16.4 61.5 39 2.6 36.7
21:10 1020 30.12 849 25.07 16.4 61.4 39 2.6 36.8
21:15 1020 30.12 849 25.07 16.1 61 42 3.1 37.7
21:20 1020 30.12 849 25.07 15.7 60.3 42 3 37.4
21:25 1020 30.12 849 25.07 15.8 60.4 41 2.6 36.6
21:30 1020 30.12 849 25.07 16.1 61 40 2.6 36.6
21:35 1020 30.12 849 25.07 16.2 61.2 39 2.3 36.1
21:40 1020 30.12 849 25.07 16.4 61.4 40 2.7 36.9
21:45 1020 30.12 849 25.07 16.1 60.9 41 3 37.4
21:50 1020 30.12 849 25.07 15.7 60.2 41 2.7 36.8
21:55 1020 30.12 849 25.07 15.6 60.1 42 2.9 37.3
22:00 1020 30.12 849 25.07 15.4 59.6 44 3.2 37.8
22:05 1020 30.12 849 25.07 15 58.9 44 2.9 37.2
22:10 1020 30.12 849 25.07 14.8 58.7 47 3.7 38.7
22:15 1020 30.12 849 25.07 14.8 58.6 45 3.1 37.6
22:20 1020 30.12 849 25.07 14.8 58.6 45 3 37.4
22:25 1020 30.12 849 25.07 14.9 58.8 44 2.8 37.1
22:30 1020 30.12 849 25.07 15.1 59.1 44 3 37.3
22:35 1020 30.12 849 25.07 15.1 59.2 44 3.1 37.5
22:40 1020 30.12 849 25.07 14.9 58.9 45 3.2 37.8
22:45 1020 30.12 849 25.07 14.8 58.7 45 3.2 37.7
22:50 1020 30.12 849 25.07 14.6 58.2 46 3.3 38
22:55 1020 30.12 849 25.07 14.3 57.7 48 3.4 38.1
23:00 1020 30.12 849 25.07 14.1 57.3 49 3.5 38.2
23:05 1020 30.12 849 25.07 13.9 57 49 3.5 38.3
23:10 1020 30.12 849 25.07 13.8 56.8 49 3.4 38
23:15 1019 30.09 849 25.07 13.8 56.8 50 3.5 38.4
23:20 1019 30.09 849 25.07 13.6 56.4 51 3.6 38.6
23:25 1019 30.09 849 25.07 13.4 56.2 52 3.7 38.7
23:30 1019 30.09 849 25.07 13.6 56.4 50 3.5 38.3
23:35 1019 30.09 849 25.07 13.6 56.5 51 3.8 38.8
23:40 1019 30.09 849 25.07 13.4 56.1 52 3.8 38.8
23:45 1019 30.09 849 25.07 13.4 56.2 51 3.6 38.4
23:50 1019 30.09 849 25.07 13.5 56.4 52 3.9 39
23:55 1019 30.09 849 25.07 13.6 56.4 50 3.3 38
24:00 1019 30.09 849 25.07 13.8 56.9 50 3.8 38.8